Time;durP1;ratioP1;P1;durP2;ratioP2;P2;SDS_P1;SDS_P2;PMS_P1;PMS_P2;Temp;Humidity;BMP_temperature;BMP_pressure;BME280_temperature;BME280_humidity;BME280_pressure;Samples;Min_cycle;Max_cycle;Signal;HPM_P1;HPM_P2
2019/12/28 00:00:42;;;;;;;27.4;23.1;;;;;;;5.11;75.5459;978.416;;;;
2019/12/28 00:03:07;;;;;;;28.6;23.6;;;;;;;5.08;76.08496;978.4755;;;;
2019/12/28 00:05:32;;;;;;;28;23;;;;;;;5.1;75.86914;978.5886;;;;
2019/12/28 00:07:57;;;;;;;29.3;24;;;;;;;5.14;75.75977;978.759;;;;
2019/12/28 00:10:22;;;;;;;30.9;25.8;;;;;;;5.1;75.91602;978.5789;;;;
2019/12/28 00:12:47;;;;;;;29.3;25.1;;;;;;;5.11;76.58691;978.5128;;;;
2019/12/28 00:15:12;;;;;;;30.4;24.3;;;;;;;5.14;76.73242;978.5508;;;;
2019/12/28 00:17:38;;;;;;;29.8;24.3;;;;;;;5.05;77.15625;978.5302;;;;
2019/12/28 00:20:03;;;;;;;28.6;23.5;;;;;;;5.03;76.08887;978.5109;;;;
2019/12/28 00:22:28;;;;;;;28.8;24.1;;;;;;;5.06;75.93066;978.5256;;;;
2019/12/28 00:24:53;;;;;;;31.7;23.8;;;;;;;5.06;76.83398;978.5435;;;;
2019/12/28 00:27:18;;;;;;;29.1;23.5;;;;;;;5.13;77.12402;978.6512;;;;
2019/12/28 00:29:43;;;;;;;29.9;25.1;;;;;;;5.02;76.69824;978.6591;;;;
2019/12/28 00:32:08;;;;;;;28.2;23.6;;;;;;;4.98;76.40332;978.5524;;;;
2019/12/28 00:34:33;;;;;;;29.2;23;;;;;;;4.96;76.16699;978.5358;;;;
2019/12/28 00:36:58;;;;;;;28.8;23.8;;;;;;;4.79;76.64551;978.6219;;;;
2019/12/28 00:40:22;;;;;;;28.2;22.3;;;;;;;4.57;76.20215;978.5658;;;;
2019/12/28 00:42:47;;;;;;;26.5;21.9;;;;;;;4.4;76.64355;978.497;;;;
2019/12/28 00:45:12;;;;;;;24.6;20.8;;;;;;;4.59;76.55371;978.5172;;;;
2019/12/28 00:47:37;;;;;;;25.2;21.3;;;;;;;4.73;75.76953;978.4914;;;;
2019/12/28 00:50:02;;;;;;;27.5;21.5;;;;;;;4.87;75.60742;978.4476;;;;
2019/12/28 00:52:27;;;;;;;26.3;22.2;;;;;;;4.7;75.84375;978.4718;;;;
2019/12/28 00:54:52;;;;;;;26;21.2;;;;;;;4.83;75.49707;978.4979;;;;
2019/12/28 00:57:17;;;;;;;26.5;22.3;;;;;;;4.87;75.68848;978.5025;;;;
2019/12/28 00:59:44;;;;;;;26.8;22.3;;;;;;;4.86;74.85449;978.5561;;;;
2019/12/28 01:02:07;;;;;;;25.1;21;;;;;;;4.81;75.15918;978.6222;;;;
2019/12/28 01:04:32;;;;;;;23.9;20.4;;;;;;;4.91;74.93262;978.5538;;;;
2019/12/28 01:06:58;;;;;;;27.1;21.5;;;;;;;4.8;74.61328;978.6578;;;;
2019/12/28 01:09:23;;;;;;;27;20.8;;;;;;;4.83;74.83789;978.6462;;;;
2019/12/28 01:11:48;;;;;;;25.7;21.3;;;;;;;4.86;74.86621;978.5417;;;;
2019/12/28 01:14:13;;;;;;;25.5;21.3;;;;;;;4.84;75.38281;978.6176;;;;
2019/12/28 01:16:38;;;;;;;25.3;21.4;;;;;;;4.87;75.36328;978.6989;;;;
2019/12/28 01:19:03;;;;;;;25.8;22.1;;;;;;;4.93;75.23535;978.788;;;;
2019/12/28 01:21:28;;;;;;;26.1;21.8;;;;;;;5.02;74.8584;978.7389;;;;
2019/12/28 01:23:53;;;;;;;26.6;21.8;;;;;;;5.04;74.96777;978.7197;;;;
2019/12/28 01:26:18;;;;;;;26.9;22.4;;;;;;;5;75.50391;978.8019;;;;
2019/12/28 01:28:43;;;;;;;27.3;22.4;;;;;;;4.98;76.21582;978.8742;;;;
2019/12/28 01:31:08;;;;;;;29;23.8;;;;;;;4.94;75.06445;978.8983;;;;
2019/12/28 01:33:34;;;;;;;25;21.8;;;;;;;4.95;75.20508;978.9333;;;;
2019/12/28 01:35:59;;;;;;;26.3;22.1;;;;;;;4.98;74.97852;978.8516;;;;
2019/12/28 01:38:24;;;;;;;25.8;21.8;;;;;;;4.95;74.84668;978.7849;;;;
2019/12/28 01:40:49;;;;;;;25.4;21.4;;;;;;;4.79;75.32715;978.7719;;;;
2019/12/28 01:43:14;;;;;;;26;21.4;;;;;;;4.82;75.55176;978.7294;;;;
2019/12/28 01:45:39;;;;;;;26.7;22.5;;;;;;;4.59;76.04297;978.6777;;;;
2019/12/28 01:48:05;;;;;;;28.9;23.1;;;;;;;4.7;76.31738;978.6911;;;;
2019/12/28 01:50:30;;;;;;;27.6;22.5;;;;;;;4.59;76.93359;978.6711;;;;
2019/12/28 01:52:55;;;;;;;25.8;22.3;;;;;;;4.76;76.66406;978.7342;;;;
2019/12/28 01:55:20;;;;;;;28.1;22.9;;;;;;;4.75;76.74316;978.7733;;;;
2019/12/28 01:57:46;;;;;;;28.6;23;;;;;;;4.64;76.65332;978.7784;;;;
2019/12/28 02:00:18;;;;;;;27.4;22.8;;;;;;;4.69;76.74414;978.7693;;;;
2019/12/28 02:02:36;;;;;;;27.1;22.5;;;;;;;4.75;76.66113;978.8081;;;;
2019/12/28 02:05:01;;;;;;;27.3;22.5;;;;;;;4.8;75.15527;978.7941;;;;
2019/12/28 02:07:26;;;;;;;26.6;22.5;;;;;;;4.75;75.71484;978.8508;;;;
2019/12/28 02:09:51;;;;;;;26.2;21.8;;;;;;;4.66;74.6582;978.8272;;;;
2019/12/28 02:12:16;;;;;;;24.3;20.6;;;;;;;4.67;74.4502;978.8423;;;;
2019/12/28 02:14:42;;;;;;;23.3;19.3;;;;;;;4.71;74.62988;978.8264;;;;
2019/12/28 02:17:07;;;;;;;25.7;21.4;;;;;;;4.68;75.41309;978.8356;;;;
2019/12/28 02:19:32;;;;;;;26.6;21.8;;;;;;;4.57;76.30566;978.791;;;;
2019/12/28 02:21:57;;;;;;;26.2;21.5;;;;;;;4.54;76.21875;978.8275;;;;
2019/12/28 02:24:22;;;;;;;26;20.5;;;;;;;4.48;75.38867;978.7955;;;;
2019/12/28 02:26:48;;;;;;;24.7;19.7;;;;;;;4.48;75.62988;978.8253;;;;
2019/12/28 02:29:13;;;;;;;22.8;19.5;;;;;;;4.51;75.10449;978.8256;;;;
2019/12/28 02:31:38;;;;;;;22.6;19.3;;;;;;;4.51;75.42773;978.8215;;;;
2019/12/28 02:34:17;;;;;;;23;19.7;;;;;;;4.41;75.06445;978.8095;;;;
2019/12/28 02:36:28;;;;;;;24.4;19.4;;;;;;;4.47;74.61328;978.848;;;;
2019/12/28 02:38:54;;;;;;;25.4;20.2;;;;;;;4.35;75.01855;978.8546;;;;
2019/12/28 02:41:19;;;;;;;21.5;19.2;;;;;;;4.32;75.00098;978.8929;;;;
2019/12/28 02:43:44;;;;;;;22.8;19;;;;;;;4.28;75.19141;978.896;;;;
2019/12/28 02:46:09;;;;;;;23.6;19.7;;;;;;;4.26;75.39648;978.9263;;;;
2019/12/28 02:48:40;;;;;;;23.2;19.2;;;;;;;4.21;75.45605;978.9107;;;;
2019/12/28 02:50:59;;;;;;;25.2;20.3;;;;;;;4.15;75.94141;978.8602;;;;
2019/12/28 02:53:24;;;;;;;23.7;20.2;;;;;;;4.15;76.1377;978.8586;;;;
2019/12/28 02:55:50;;;;;;;25.4;20.1;;;;;;;4.08;76.26367;978.815;;;;
2019/12/28 02:58:15;;;;;;;25.6;20.3;;;;;;;4.01;76.19336;978.8258;;;;
2019/12/28 03:00:40;;;;;;;23.9;20.4;;;;;;;4.04;75.97852;978.7982;;;;
2019/12/28 03:03:05;;;;;;;25.5;20.5;;;;;;;3.89;76.80762;978.8453;;;;
2019/12/28 03:05:30;;;;;;;24.6;20.7;;;;;;;3.77;77.17578;978.8228;;;;
2019/12/28 03:07:55;;;;;;;24.3;20.3;;;;;;;3.64;77.5127;978.8533;;;;
2019/12/28 03:10:21;;;;;;;23.9;20.6;;;;;;;3.55;77.73926;978.8976;;;;
2019/12/28 03:12:46;;;;;;;26.8;22.6;;;;;;;3.49;78.80957;978.9042;;;;
2019/12/28 03:15:11;;;;;;;26.7;20.9;;;;;;;3.44;78.86914;978.9087;;;;
2019/12/28 03:17:36;;;;;;;27;21.3;;;;;;;3.42;78.85645;978.9316;;;;
2019/12/28 03:20:01;;;;;;;28.4;21.9;;;;;;;3.38;78.75586;978.9078;;;;
2019/12/28 03:22:26;;;;;;;26.2;21.2;;;;;;;3.42;78.33789;978.93;;;;
2019/12/28 03:24:52;;;;;;;26;21.3;;;;;;;3.37;78.53516;978.973;;;;
2019/12/28 03:27:17;;;;;;;26.5;21;;;;;;;3.33;78.7002;978.9888;;;;
2019/12/28 03:29:42;;;;;;;24.8;20.9;;;;;;;3.3;78.54395;978.9908;;;;
2019/12/28 03:32:08;;;;;;;24.1;20.1;;;;;;;3.29;78.37109;978.998;;;;
2019/12/28 03:34:33;;;;;;;24.5;20.4;;;;;;;3.29;78.2207;978.9941;;;;
2019/12/28 03:36:58;;;;;;;25.8;21.4;;;;;;;3.32;77.91504;978.9995;;;;
2019/12/28 03:39:23;;;;;;;25.2;20.8;;;;;;;3.16;77.87402;978.9852;;;;
2019/12/28 03:41:48;;;;;;;24.3;20;;;;;;;3.08;78.07813;978.8942;;;;
2019/12/28 03:44:13;;;;;;;25.5;21.2;;;;;;;3.04;78.23145;978.8947;;;;
2019/12/28 03:46:38;;;;;;;23.8;20.4;;;;;;;3.08;78.06738;978.9545;;;;
2019/12/28 03:49:03;;;;;;;24.9;20.4;;;;;;;3.13;78.21289;978.9573;;;;
2019/12/28 03:51:29;;;;;;;24.1;20.4;;;;;;;3.11;78.38281;978.9984;;;;
2019/12/28 03:53:54;;;;;;;25.3;21.1;;;;;;;3.13;78.30566;979.0233;;;;
2019/12/28 03:56:19;;;;;;;24.3;20.5;;;;;;;3.11;78.3252;979.0787;;;;
2019/12/28 03:58:44;;;;;;;24.8;20.8;;;;;;;3.09;78.30078;978.9995;;;;
2019/12/28 04:02:26;;;;;;;25;21.6;;;;;;;3.03;78.47168;979.0096;;;;
2019/12/28 04:04:51;;;;;;;26.7;21.8;;;;;;;2.96;78.66602;979.0972;;;;
2019/12/28 04:07:16;;;;;;;26.3;22;;;;;;;2.93;78.7998;979.0541;;;;
2019/12/28 04:09:41;;;;;;;25.2;21.3;;;;;;;2.94;78.76465;979.1553;;;;
2019/12/28 04:12:06;;;;;;;25.2;21.3;;;;;;;2.96;78.30957;979.1575;;;;
2019/12/28 04:14:32;;;;;;;25.6;20.9;;;;;;;2.94;78.2832;979.1811;;;;
2019/12/28 04:16:57;;;;;;;27.1;21.7;;;;;;;2.93;78.46582;979.2084;;;;
2019/12/28 04:19:22;;;;;;;25.4;20.3;;;;;;;2.93;78.13184;979.2654;;;;
2019/12/28 04:21:47;;;;;;;26.7;22.4;;;;;;;2.84;78.0459;979.3369;;;;
2019/12/28 04:24:12;;;;;;;166.6;27.3;;;;;;;2.48;80.39551;979.3904;;;;
2019/12/28 04:26:37;;;;;;;489.9;33.8;;;;;;;2.21;81.43359;979.4275;;;;
2019/12/28 04:29:02;;;;;;;421.9;31;;;;;;;2.21;82.05664;979.4203;;;;
2019/12/28 04:31:27;;;;;;;202.1;27.2;;;;;;;2.37;81.56934;979.4531;;;;
2019/12/28 04:33:52;;;;;;;167.7;27;;;;;;;2.4;81.16211;979.4705;;;;
2019/12/28 04:36:17;;;;;;;127.1;25.8;;;;;;;2.53;80.55273;979.5316;;;;
2019/12/28 04:38:42;;;;;;;274.9;27.6;;;;;;;2.52;80.34473;979.4753;;;;
2019/12/28 04:41:07;;;;;;;52.8;23.5;;;;;;;2.58;80.33301;979.5021;;;;
2019/12/28 04:43:32;;;;;;;96.1;24.3;;;;;;;2.5;80.39844;979.4738;;;;
2019/12/28 04:45:58;;;;;;;437.3;30.7;;;;;;;2.31;80.55957;979.4388;;;;
2019/12/28 04:48:23;;;;;;;145;28.1;;;;;;;2.34;80.91895;979.5103;;;;
2019/12/28 04:50:48;;;;;;;134.7;26.4;;;;;;;2.37;80.93848;979.5317;;;;
2019/12/28 04:53:13;;;;;;;142.5;24.4;;;;;;;2.44;80.3291;979.5361;;;;
2019/12/28 04:55:38;;;;;;;99.1;23.7;;;;;;;2.53;80.09277;979.5284;;;;
2019/12/28 04:58:03;;;;;;;82.1;22;;;;;;;2.49;79.65918;979.5327;;;;
2019/12/28 05:00:28;;;;;;;216.6;23.5;;;;;;;2.42;79.72852;979.5233;;;;
2019/12/28 05:02:53;;;;;;;33;22.1;;;;;;;2.55;80.05078;979.5417;;;;
2019/12/28 05:05:18;;;;;;;174.8;24;;;;;;;2.51;79.56055;979.5428;;;;
2019/12/28 05:07:43;;;;;;;88.1;23.6;;;;;;;2.47;80.04688;979.5471;;;;
2019/12/28 05:10:08;;;;;;;176.9;24.2;;;;;;;2.49;79.7627;979.5455;;;;
2019/12/28 05:12:33;;;;;;;60.4;23;;;;;;;2.43;80.29297;979.606;;;;
2019/12/28 05:14:58;;;;;;;89.1;23.3;;;;;;;2.37;80.12109;979.6202;;;;
2019/12/28 05:17:23;;;;;;;141.3;23.6;;;;;;;2.4;79.59863;979.6279;;;;
2019/12/28 05:19:48;;;;;;;120.4;24;;;;;;;2.38;79.69727;979.6471;;;;
2019/12/28 05:22:14;;;;;;;308;27.2;;;;;;;2.22;79.83984;979.6547;;;;
2019/12/28 05:24:39;;;;;;;129.9;24.6;;;;;;;2.37;79.67188;979.5984;;;;
2019/12/28 05:27:04;;;;;;;34.2;21.6;;;;;;;2.24;80.15527;979.6931;;;;
2019/12/28 05:29:29;;;;;;;38.1;20.9;;;;;;;2.26;80.12207;979.7099;;;;
2019/12/28 05:31:54;;;;;;;26.2;21.1;;;;;;;2.27;79.83789;979.7433;;;;
2019/12/28 05:34:19;;;;;;;56.7;22.9;;;;;;;2.45;78.70996;979.7842;;;;
2019/12/28 05:36:44;;;;;;;29.5;21.6;;;;;;;2.47;78.81641;979.8209;;;;
2019/12/28 05:39:09;;;;;;;23.3;20.2;;;;;;;2.47;78.82813;979.8933;;;;
2019/12/28 05:41:34;;;;;;;22.8;19.8;;;;;;;2.48;78.56543;979.8869;;;;
2019/12/28 05:43:59;;;;;;;22.4;20;;;;;;;2.49;78.49902;979.923;;;;
2019/12/28 05:46:25;;;;;;;22.7;20.2;;;;;;;2.57;78.42188;979.9166;;;;
2019/12/28 05:48:50;;;;;;;23.6;21;;;;;;;2.57;78.50195;979.9383;;;;
2019/12/28 05:51:15;;;;;;;23.9;21.3;;;;;;;2.51;79.03125;980.0006;;;;
2019/12/28 05:53:40;;;;;;;22.2;19.8;;;;;;;2.49;79.3623;980.0419;;;;
2019/12/28 05:56:05;;;;;;;23.2;20.5;;;;;;;2.51;79.47852;980.0464;;;;
2019/12/28 05:58:30;;;;;;;23.1;19.7;;;;;;;2.61;79.01367;980.0762;;;;
2019/12/28 06:00:55;;;;;;;22.2;19.8;;;;;;;2.6;78.46094;980.1552;;;;
2019/12/28 06:03:20;;;;;;;22.7;20.2;;;;;;;2.73;78.28809;980.2739;;;;
2019/12/28 06:05:45;;;;;;;22.4;20;;;;;;;2.8;78.24414;980.2896;;;;
2019/12/28 06:08:10;;;;;;;23.7;20.2;;;;;;;2.7;79.04492;980.3384;;;;
2019/12/28 06:10:35;;;;;;;22.9;20.5;;;;;;;2.68;79.39648;980.3692;;;;
2019/12/28 06:13:02;;;;;;;24.1;21.3;;;;;;;2.77;78.75879;980.395;;;;
2019/12/28 06:15:26;;;;;;;24.1;20.9;;;;;;;2.8;78.38184;980.406;;;;
2019/12/28 06:17:51;;;;;;;25.4;21.4;;;;;;;2.83;78.45898;980.4041;;;;
2019/12/28 06:20:16;;;;;;;25.9;22.6;;;;;;;2.74;78.64844;980.3889;;;;
2019/12/28 06:22:41;;;;;;;26.9;23.7;;;;;;;2.82;78.44434;980.443;;;;
2019/12/28 06:25:16;;;;;;;25.2;22;;;;;;;2.79;78.39355;980.4771;;;;
2019/12/28 06:27:41;;;;;;;26.4;22.6;;;;;;;2.82;78.54785;980.4688;;;;
2019/12/28 06:30:06;;;;;;;24.6;21.9;;;;;;;2.88;78.14453;980.4786;;;;
2019/12/28 06:32:31;;;;;;;26.4;22.7;;;;;;;2.8;78.45215;980.4856;;;;
2019/12/28 06:34:56;;;;;;;25.4;22.5;;;;;;;2.87;78.36328;980.4907;;;;
2019/12/28 06:37:22;;;;;;;27.5;23.5;;;;;;;2.74;78.85547;980.4531;;;;
2019/12/28 06:41:06;;;;;;;28.7;24.1;;;;;;;2.85;78.8418;980.5103;;;;
2019/12/28 06:43:32;;;;;;;25.5;22.6;;;;;;;2.91;78.62207;980.5398;;;;
2019/12/28 06:45:57;;;;;;;26;22.3;;;;;;;2.92;78.19922;980.5588;;;;
2019/12/28 06:48:22;;;;;;;27.6;22.9;;;;;;;2.97;78.11523;980.6044;;;;
2019/12/28 06:50:47;;;;;;;25.5;22.8;;;;;;;2.99;77.8418;980.6683;;;;
2019/12/28 06:53:12;;;;;;;26.5;23;;;;;;;2.89;77.99805;980.7014;;;;
2019/12/28 06:55:37;;;;;;;26.4;23.5;;;;;;;2.98;77.8877;980.7314;;;;
2019/12/28 06:58:02;;;;;;;25.9;22.3;;;;;;;3.01;77.63965;980.7447;;;;
2019/12/28 07:00:27;;;;;;;27.1;23.1;;;;;;;3.11;77.40332;980.8091;;;;
2019/12/28 07:02:52;;;;;;;26.3;23.5;;;;;;;3.11;76.91016;980.7938;;;;
2019/12/28 07:05:17;;;;;;;25.3;22;;;;;;;3.08;77.13281;980.7997;;;;
2019/12/28 07:07:42;;;;;;;28.2;23.9;;;;;;;3.11;77.01367;980.8275;;;;
2019/12/28 07:10:07;;;;;;;29.1;24.5;;;;;;;3.16;77.02051;980.8386;;;;
2019/12/28 07:12:33;;;;;;;27.9;23.5;;;;;;;3.11;77.48438;980.8582;;;;
2019/12/28 07:14:58;;;;;;;27.1;23;;;;;;;3.14;76.91309;980.9133;;;;
2019/12/28 07:17:23;;;;;;;26.4;22.5;;;;;;;3.2;77.24707;980.9203;;;;
2019/12/28 07:19:48;;;;;;;24.8;21.6;;;;;;;3.2;76.40625;980.9469;;;;
2019/12/28 07:22:13;;;;;;;26.5;23.1;;;;;;;3.18;76.69043;980.9227;;;;
2019/12/28 07:24:38;;;;;;;24.9;22.2;;;;;;;3.14;75.76172;980.9197;;;;
2019/12/28 07:27:03;;;;;;;24.4;21.5;;;;;;;3.12;76.17285;980.9329;;;;
2019/12/28 07:29:28;;;;;;;25.3;22.3;;;;;;;3.11;75.84863;980.9941;;;;
2019/12/28 07:31:53;;;;;;;24.6;21.3;;;;;;;3.17;75.84863;981.0083;;;;
2019/12/28 07:34:18;;;;;;;26;21.7;;;;;;;3.2;75.67969;980.9983;;;;
2019/12/28 07:36:43;;;;;;;24.7;21.2;;;;;;;3.25;75.64355;981.103;;;;
2019/12/28 07:39:08;;;;;;;24.7;21.5;;;;;;;3.25;75.91992;981.1852;;;;
2019/12/28 07:41:33;;;;;;;22.8;20.4;;;;;;;3.21;75.24414;981.2385;;;;
2019/12/28 07:43:59;;;;;;;23.9;20.9;;;;;;;3.27;75.47168;981.1964;;;;
2019/12/28 07:46:24;;;;;;;24.6;21.3;;;;;;;3.28;75.61328;981.2776;;;;
2019/12/28 07:48:49;;;;;;;22.2;19.8;;;;;;;3.23;75.24805;981.3156;;;;
2019/12/28 07:51:14;;;;;;;22.7;20.2;;;;;;;3.33;75.57715;981.3447;;;;
2019/12/28 07:53:39;;;;;;;22.8;20.4;;;;;;;3.32;75.32129;981.3297;;;;
2019/12/28 07:56:04;;;;;;;23.9;21.3;;;;;;;3.25;75.5625;981.395;;;;
2019/12/28 07:58:29;;;;;;;22.7;20.1;;;;;;;3.24;75.16797;981.347;;;;
2019/12/28 08:00:54;;;;;;;22.7;20.3;;;;;;;3.33;74.65625;981.3013;;;;
2019/12/28 08:03:19;;;;;;;22.2;19.8;;;;;;;3.43;75.0752;981.3625;;;;
2019/12/28 08:05:44;;;;;;;26.2;21.4;;;;;;;3.36;74.82227;981.4208;;;;
2019/12/28 08:08:10;;;;;;;27.6;22.7;;;;;;;3.48;74.6709;981.4304;;;;
2019/12/28 08:10:35;;;;;;;33.2;24.9;;;;;;;3.46;74.18066;981.3832;;;;
2019/12/28 08:13:00;;;;;;;35.6;26.2;;;;;;;3.49;74.43066;981.3797;;;;
2019/12/28 08:15:25;;;;;;;35.4;25.9;;;;;;;3.47;74.47168;981.4122;;;;
2019/12/28 08:17:50;;;;;;;29.9;23.1;;;;;;;3.4;73.6416;981.3725;;;;
2019/12/28 08:20:15;;;;;;;30.2;22.7;;;;;;;3.4;73.60645;981.389;;;;
2019/12/28 08:22:40;;;;;;;24.8;20.9;;;;;;;3.44;72.69238;981.4154;;;;
2019/12/28 08:25:05;;;;;;;24.2;20.2;;;;;;;3.69;72.3291;981.3766;;;;
2019/12/28 08:27:30;;;;;;;24.7;21.5;;;;;;;3.65;73.0957;981.4501;;;;
2019/12/28 08:29:55;;;;;;;23;20.2;;;;;;;3.79;73.64063;981.5164;;;;
2019/12/28 08:32:20;;;;;;;22.5;19.4;;;;;;;3.73;73.96289;981.5823;;;;
2019/12/28 08:34:46;;;;;;;20.9;18.7;;;;;;;3.74;72.75488;981.5667;;;;
2019/12/28 08:37:11;;;;;;;20.9;18.7;;;;;;;3.87;71.87695;981.6108;;;;
2019/12/28 08:39:36;;;;;;;20.6;18.5;;;;;;;3.88;71.92383;981.6333;;;;
2019/12/28 08:42:01;;;;;;;21;18.8;;;;;;;3.79;70.75684;981.6017;;;;
2019/12/28 08:44:26;;;;;;;21.3;18.5;;;;;;;3.82;71.94727;981.6626;;;;
2019/12/28 08:46:51;;;;;;;20;18;;;;;;;3.76;72.30762;981.6802;;;;
2019/12/28 08:49:17;;;;;;;19.3;17.3;;;;;;;3.76;71.29297;981.6665;;;;
2019/12/28 08:51:48;;;;;;;18.9;16.9;;;;;;;3.86;70.94141;981.6325;;;;
2019/12/28 08:54:07;;;;;;;20.4;18.2;;;;;;;3.95;71.24414;981.6166;;;;
2019/12/28 08:56:32;;;;;;;20.3;17.9;;;;;;;4.19;70.12891;981.595;;;;
2019/12/28 08:58:57;;;;;;;19.5;17.4;;;;;;;4.21;69.27734;981.6994;;;;
2019/12/28 09:01:22;;;;;;;20;17.7;;;;;;;4.27;69.83203;981.6953;;;;
2019/12/28 09:03:47;;;;;;;17.7;15.9;;;;;;;4.16;68.34668;981.7576;;;;
2019/12/28 09:06:13;;;;;;;17.7;15.8;;;;;;;4.31;68.28809;981.7868;;;;
2019/12/28 09:08:38;;;;;;;17.9;16.1;;;;;;;4.48;67.11328;981.7368;;;;
2019/12/28 09:11:03;;;;;;;19.3;17;;;;;;;4.79;67.25586;981.68;;;;
2019/12/28 09:13:28;;;;;;;19.6;17;;;;;;;4.99;66.70898;981.6917;;;;
2019/12/28 09:15:53;;;;;;;18.5;16.6;;;;;;;5.16;66.0293;981.6663;;;;
2019/12/28 09:18:18;;;;;;;18.9;16.9;;;;;;;4.99;66.41992;981.6378;;;;
2019/12/28 09:20:43;;;;;;;18.7;16.7;;;;;;;4.82;66.81055;981.6545;;;;
2019/12/28 09:23:08;;;;;;;20.3;16.9;;;;;;;5.23;66.77051;981.6724;;;;
2019/12/28 09:25:34;;;;;;;18.6;16.6;;;;;;;5.25;66.55273;981.6616;;;;
2019/12/28 09:27:59;;;;;;;19.3;16.6;;;;;;;5.29;66.5127;981.6384;;;;
2019/12/28 09:30:24;;;;;;;19.3;17.2;;;;;;;5.32;66.19434;981.756;;;;
2019/12/28 09:32:49;;;;;;;19.4;17.3;;;;;;;5.27;66.67188;981.7517;;;;
2019/12/28 09:35:14;;;;;;;19.5;17.3;;;;;;;5.1;67.54883;981.7459;;;;
2019/12/28 09:37:39;;;;;;;18.7;16.7;;;;;;;5.02;67.29199;981.7183;;;;
2019/12/28 09:40:04;;;;;;;19;17;;;;;;;4.74;68.40527;981.666;;;;
2019/12/28 09:42:30;;;;;;;18.3;16.4;;;;;;;4.78;68.27246;981.7389;;;;
2019/12/28 09:44:55;;;;;;;21.9;16.3;;;;;;;4.77;68.28223;981.7511;;;;
2019/12/28 09:47:20;;;;;;;19.9;17.7;;;;;;;4.64;69.16309;981.7924;;;;
2019/12/28 09:49:45;;;;;;;18.2;16.3;;;;;;;4.52;68.60059;981.7693;;;;
2019/12/28 09:52:10;;;;;;;18.6;16.6;;;;;;;4.61;68.29199;981.7762;;;;
2019/12/28 09:54:35;;;;;;;20.1;17.8;;;;;;;4.43;69.79883;981.8074;;;;
2019/12/28 09:57:00;;;;;;;19.3;17;;;;;;;4.44;69.66309;981.8533;;;;
2019/12/28 09:59:26;;;;;;;20.4;17.6;;;;;;;4.58;69.47754;981.9032;;;;
2019/12/28 10:01:51;;;;;;;20;17.9;;;;;;;4.77;68.60449;981.9357;;;;
2019/12/28 10:04:16;;;;;;;19.2;17.3;;;;;;;4.7;68.84766;981.9302;;;;
2019/12/28 10:06:41;;;;;;;19.3;16.7;;;;;;;4.7;68.7666;981.9261;;;;
2019/12/28 10:09:06;;;;;;;17.3;15.5;;;;;;;4.56;67.99414;981.9205;;;;
2019/12/28 10:11:31;;;;;;;17.6;15.9;;;;;;;4.53;68.28906;981.9354;;;;
2019/12/28 10:13:56;;;;;;;18;16.1;;;;;;;4.62;67.58789;981.9947;;;;
2019/12/28 10:16:21;;;;;;;17.1;15.3;;;;;;;4.82;67.71289;982.0359;;;;
2019/12/28 10:18:46;;;;;;;17;15.2;;;;;;;4.69;67.02051;981.9978;;;;
2019/12/28 10:21:11;;;;;;;16.3;14.6;;;;;;;4.63;67.24219;981.9623;;;;
2019/12/28 10:23:36;;;;;;;18.3;15.3;;;;;;;4.25;68.62695;981.8585;;;;
2019/12/28 10:26:02;;;;;;;16.6;14.8;;;;;;;4.56;68.0293;981.873;;;;
2019/12/28 10:28:27;;;;;;;15.1;13.5;;;;;;;4.55;66.89453;981.8601;;;;
2019/12/28 10:30:52;;;;;;;15.3;13.1;;;;;;;4.51;66.28711;981.85;;;;
2019/12/28 10:33:17;;;;;;;13.1;11.7;;;;;;;4.59;64.11621;981.8379;;;;
2019/12/28 10:35:42;;;;;;;9.8;8.6;;;;;;;4.69;62.15234;981.8447;;;;
2019/12/28 10:38:07;;;;;;;8.8;7.9;;;;;;;4.59;60.66992;981.7823;;;;
2019/12/28 10:40:32;;;;;;;9.9;8.5;;;;;;;4.7;61.28613;981.7786;;;;
2019/12/28 10:42:58;;;;;;;12.7;10.6;;;;;;;4.58;62.49609;981.7283;;;;
2019/12/28 10:45:23;;;;;;;11.6;10.3;;;;;;;4.29;62.55664;981.6728;;;;
2019/12/28 10:47:48;;;;;;;10;9;;;;;;;4.31;62.60547;981.6652;;;;
2019/12/28 10:50:13;;;;;;;9.6;8.6;;;;;;;4.6;62.26758;981.6145;;;;
2019/12/28 10:52:38;;;;;;;8.7;6.4;;;;;;;4.25;59.52539;981.6192;;;;
2019/12/28 10:55:03;;;;;;;7.4;6.6;;;;;;;4.39;59.24512;981.5991;;;;
2019/12/28 10:57:28;;;;;;;7.2;5.6;;;;;;;4.23;58.875;981.5048;;;;
2019/12/28 10:59:54;;;;;;;8.5;6.4;;;;;;;4.29;59.4043;981.5148;;;;
2019/12/28 11:02:19;;;;;;;6.5;5.8;;;;;;;4.47;58.63184;981.5023;;;;
2019/12/28 11:04:44;;;;;;;7.3;6.6;;;;;;;4.55;58.19238;981.5126;;;;
2019/12/28 11:07:10;;;;;;;9.2;8;;;;;;;4.85;58.90332;981.5413;;;;
2019/12/28 11:09:35;;;;;;;10.1;8.3;;;;;;;4.81;59.4873;981.5885;;;;
2019/12/28 11:12:00;;;;;;;8;7.2;;;;;;;4.43;58.67188;981.6003;;;;
2019/12/28 11:14:25;;;;;;;8;7.2;;;;;;;4.33;58.83203;981.5411;;;;
2019/12/28 11:16:50;;;;;;;9.9;7.9;;;;;;;4.38;60.07422;981.5986;;;;
2019/12/28 11:19:15;;;;;;;12.5;8.3;;;;;;;4.71;60.21387;981.6205;;;;
2019/12/28 11:21:40;;;;;;;9.4;7;;;;;;;4.5;58.83203;981.6139;;;;
2019/12/28 11:24:05;;;;;;;8.4;7.5;;;;;;;4.32;59.58105;981.5821;;;;
2019/12/28 11:26:30;;;;;;;14.1;8.3;;;;;;;4.6;61.1123;981.6105;;;;
2019/12/28 11:28:56;;;;;;;9.5;8.5;;;;;;;4.71;60.23535;981.5609;;;;
2019/12/28 11:31:21;;;;;;;11.6;8.3;;;;;;;4.8;58.66504;981.5361;;;;
2019/12/28 11:33:46;;;;;;;8.4;7.6;;;;;;;4.74;56.87695;981.4596;;;;
2019/12/28 11:36:11;;;;;;;9.1;8.1;;;;;;;4.92;58.0332;981.3387;;;;
2019/12/28 11:38:36;;;;;;;8.6;7.7;;;;;;;5.16;56.87402;981.3016;;;;
2019/12/28 11:41:01;;;;;;;8.6;7.6;;;;;;;5.18;56.3916;981.2479;;;;
2019/12/28 11:43:26;;;;;;;7.9;7.1;;;;;;;5.19;56.4043;981.1404;;;;
2019/12/28 11:45:51;;;;;;;8.2;7.4;;;;;;;5.1;56.95898;981.1082;;;;
2019/12/28 11:48:16;;;;;;;8.1;7.3;;;;;;;5.02;57.43359;981.1278;;;;
2019/12/28 11:50:41;;;;;;;8.2;7.4;;;;;;;5.12;56.56836;981.0988;;;;
2019/12/28 11:53:07;;;;;;;8.5;7.7;;;;;;;5.35;56.78418;981.1066;;;;
2019/12/28 11:55:32;;;;;;;10.9;8.8;;;;;;;5;57.61719;981.1384;;;;
2019/12/28 11:57:57;;;;;;;9.2;8.2;;;;;;;4.85;58.5;981.1727;;;;
2019/12/28 12:00:22;;;;;;;9.1;8.2;;;;;;;4.51;58.75293;981.165;;;;
2019/12/28 12:02:48;;;;;;;9.2;8.3;;;;;;;4.52;59.66797;981.2076;;;;
2019/12/28 12:05:13;;;;;;;9.2;8.2;;;;;;;4.32;59.60352;981.2712;;;;
2019/12/28 12:07:38;;;;;;;9.1;8.2;;;;;;;4.57;60.125;981.2713;;;;
2019/12/28 12:10:04;;;;;;;8.7;7.8;;;;;;;4.33;59.84961;981.3339;;;;
2019/12/28 12:12:29;;;;;;;9.4;8.1;;;;;;;4.41;59.65137;981.3081;;;;
2019/12/28 12:14:54;;;;;;;10.3;8.5;;;;;;;4.31;59.9375;981.2623;;;;
2019/12/28 12:17:19;;;;;;;9.5;8.5;;;;;;;4.42;60.42676;981.2195;;;;
2019/12/28 12:19:44;;;;;;;10.1;8.2;;;;;;;4.21;60.3623;981.2079;;;;
2019/12/28 12:22:09;;;;;;;10;8.8;;;;;;;4.2;60.78809;981.2354;;;;
2019/12/28 12:24:34;;;;;;;10.1;8.4;;;;;;;4.34;59.97656;981.1721;;;;
2019/12/28 12:26:59;;;;;;;9.7;8.7;;;;;;;4.65;60.51563;981.1664;;;;
2019/12/28 12:29:25;;;;;;;10.4;8.4;;;;;;;4.63;58.96582;981.1177;;;;
2019/12/28 12:31:49;;;;;;;9.6;8.4;;;;;;;4.66;59.29395;981.1099;;;;
2019/12/28 12:34:14;;;;;;;9.5;8.2;;;;;;;4.68;59.67676;981.0695;;;;
2019/12/28 12:36:40;;;;;;;9.6;8.6;;;;;;;4.97;59.49805;981.0494;;;;
2019/12/28 12:39:05;;;;;;;8.6;7.7;;;;;;;4.96;57.72754;981.0147;;;;
2019/12/28 12:43:12;;;;;;;7.5;6.4;;;;;;;5.42;55.50781;981.0079;;;;
2019/12/28 12:45:37;;;;;;;7.4;6.3;;;;;;;5.86;54.69531;980.9545;;;;
2019/12/28 12:48:02;;;;;;;8.5;7.7;;;;;;;5.78;54.84668;981.0158;;;;
2019/12/28 12:50:27;;;;;;;9.1;8.2;;;;;;;5.61;55.14941;981.0209;;;;
2019/12/28 12:52:52;;;;;;;8.7;7.9;;;;;;;5.57;55.5625;980.9941;;;;
2019/12/28 12:55:17;;;;;;;8.4;7.6;;;;;;;5.52;55.60156;981.0691;;;;
2019/12/28 12:57:42;;;;;;;8.8;8;;;;;;;5.37;56.14844;981.0167;;;;
2019/12/28 13:00:07;;;;;;;9.1;8.2;;;;;;;5.26;56.21582;980.9829;;;;
2019/12/28 13:02:32;;;;;;;8.8;7.9;;;;;;;5.15;56.50293;980.9677;;;;
2019/12/28 13:04:58;;;;;;;10;8.6;;;;;;;5.34;57.33789;980.9695;;;;
2019/12/28 13:07:23;;;;;;;10;8.4;;;;;;;5.31;56.84766;981.0217;;;;
2019/12/28 13:10:06;;;;;;;9.2;8.2;;;;;;;5.16;58.03125;980.9434;;;;
2019/12/28 13:12:13;;;;;;;9;8.1;;;;;;;5.11;56.55469;980.9609;;;;
2019/12/28 13:14:38;;;;;;;7.6;6.8;;;;;;;5.08;56.43555;980.9244;;;;
2019/12/28 13:17:03;;;;;;;7.4;6.7;;;;;;;4.93;56.24121;980.8766;;;;
2019/12/28 13:19:28;;;;;;;7.5;6.8;;;;;;;4.95;56.29102;980.914;;;;
2019/12/28 13:21:53;;;;;;;7;6.3;;;;;;;5;56.10156;980.9521;;;;
2019/12/28 13:24:18;;;;;;;7.5;6.6;;;;;;;5.02;55.67578;981.0181;;;;
2019/12/28 13:26:44;;;;;;;7.6;6.6;;;;;;;4.97;56.82617;981.0413;;;;
2019/12/28 13:29:09;;;;;;;7.5;6.7;;;;;;;5.02;56.79883;981.0839;;;;
2019/12/28 13:31:34;;;;;;;7.6;6.8;;;;;;;5.06;55.68066;981.11;;;;
2019/12/28 13:33:59;;;;;;;8.1;7.3;;;;;;;5.22;56.25781;981.173;;;;
2019/12/28 13:36:24;;;;;;;7.5;6.8;;;;;;;5.31;54.625;981.1663;;;;
2019/12/28 13:38:49;;;;;;;7.7;6.9;;;;;;;5.35;54.67676;981.1672;;;;
2019/12/28 13:41:14;;;;;;;8.2;7.4;;;;;;;5.15;55.36719;981.1661;;;;
2019/12/28 13:43:39;;;;;;;9.8;8.4;;;;;;;5.15;55.63477;981.2008;;;;
2019/12/28 13:46:05;;;;;;;9.7;8.2;;;;;;;5.44;57.1084;981.2745;;;;
2019/12/28 13:48:30;;;;;;;9.8;8.8;;;;;;;5.15;56.21191;981.2468;;;;
2019/12/28 13:50:55;;;;;;;8.8;7.9;;;;;;;5.39;56.40723;981.3078;;;;
2019/12/28 13:53:20;;;;;;;8.7;7.8;;;;;;;5.48;55.93164;981.2651;;;;
2019/12/28 13:55:45;;;;;;;9.3;8;;;;;;;5.59;56.20313;981.285;;;;
2019/12/28 13:58:10;;;;;;;10.9;8.1;;;;;;;5.62;56.31055;981.3962;;;;
2019/12/28 14:00:35;;;;;;;9.3;7.7;;;;;;;5.54;55.57031;981.3466;;;;
2019/12/28 14:03:00;;;;;;;8.4;7.5;;;;;;;5.56;55.71094;981.3695;;;;
2019/12/28 14:05:25;;;;;;;8.8;7.9;;;;;;;5.54;55.91699;981.4266;;;;
2019/12/28 14:07:50;;;;;;;8.6;7.7;;;;;;;5.59;55.02051;981.4025;;;;
2019/12/28 14:10:16;;;;;;;8.6;7.7;;;;;;;5.39;55.5957;981.4579;;;;